createdAt,value
2023-05-22T00:00:28.543Z,101575.75
2023-05-22T00:05:34.836Z,101585.41
2023-05-22T00:10:38.292Z,101570.25
2023-05-22T00:15:41.538Z,101554.91
2023-05-22T00:20:46.581Z,101564.38
2023-05-22T00:25:52.099Z,101559.75
2023-05-22T00:30:55.150Z,101551.53
2023-05-22T00:35:59.509Z,101534.63
2023-05-22T00:41:04.095Z,101530.03
2023-05-22T00:46:07.716Z,101531.69
2023-05-22T00:51:12.248Z,101511.31
2023-05-22T00:56:16.276Z,101529.81
2023-05-22T01:01:19.849Z,101528.78
2023-05-22T01:06:24.409Z,101524.19
2023-05-22T01:11:33.212Z,101539.38
2023-05-22T01:16:41.881Z,101556.13
2023-05-22T01:21:57.634Z,101550.84
2023-05-22T01:27:29.283Z,101548.94
2023-05-22T01:32:38.675Z,101548.13
2023-05-22T01:37:44.036Z,101560.50
2023-05-22T01:42:47.185Z,101557.56
2023-05-22T01:47:52.181Z,101552.25
2023-05-22T01:53:00.116Z,101539.75
2023-05-22T01:58:11.527Z,101527.13
2023-05-22T02:03:21.019Z,101523.63
2023-05-22T02:08:27.816Z,101525.41
2023-05-22T02:13:31.508Z,101515.59
2023-05-22T02:18:36.032Z,101516.66
2023-05-22T02:23:39.110Z,101518.44
2023-05-22T02:28:43.642Z,101508.63
2023-05-22T02:33:50.419Z,101501.63
2023-05-22T02:38:55.517Z,101494.66
2023-05-22T02:43:59.414Z,101496.53
2023-05-22T02:49:04.373Z,101494.75
2023-05-22T02:54:07.376Z,101488.44
2023-05-22T02:59:10.438Z,101476.72
2023-05-22T03:04:15.891Z,101486.59
2023-05-22T03:09:20.299Z,101478.53
2023-05-22T03:14:23.353Z,101474.09
2023-05-22T03:19:28.096Z,101476.72
2023-05-22T03:24:31.571Z,101467.81
2023-05-22T03:29:36.441Z,101480.31
2023-05-22T03:34:41.503Z,101481.19
2023-05-22T03:39:46.602Z,101466.81
2023-05-22T03:44:58.393Z,101477.56
2023-05-22T03:50:03.783Z,101473.09
2023-05-22T03:55:08.142Z,101477.31
2023-05-22T04:00:12.675Z,101489.59
2023-05-22T04:05:19.767Z,101482.66
2023-05-22T04:10:23.713Z,101473.63
2023-05-22T04:15:27.076Z,101487.84
2023-05-22T04:20:32.296Z,101476.38
2023-05-22T04:25:36.519Z,101478.47
2023-05-22T04:30:40.514Z,101491.03
2023-05-22T04:35:45.515Z,101494.94
2023-05-22T04:40:48.764Z,101501.88
2023-05-22T04:45:52.056Z,101495.88
2023-05-22T04:50:57.602Z,101503.88
2023-05-22T04:56:00.917Z,101497.91
2023-05-22T05:01:05.054Z,101513.19
2023-05-22T05:06:09.657Z,101509.03
2023-05-22T05:11:12.837Z,101509.13
2023-05-22T05:16:16.148Z,101497.06
2023-05-22T05:21:21.440Z,101509.84
2023-05-22T05:26:25.041Z,101514.19
2023-05-22T05:31:28.998Z,101519.84
2023-05-22T05:36:57.376Z,101513.47
2023-05-22T05:42:01.925Z,101519.69
2023-05-22T05:47:06.425Z,101530.41
2023-05-22T05:52:11.066Z,101526.09
2023-05-22T05:57:15.290Z,101531.53
2023-05-22T06:02:19.282Z,101535.16
2023-05-22T06:07:24.961Z,101529.88
2023-05-22T06:12:30.352Z,101540.44
2023-05-22T06:17:33.488Z,101542.19
2023-05-22T06:22:38.922Z,101549.50
2023-05-22T06:27:42.623Z,101548.78
2023-05-22T06:32:45.897Z,101546.34
2023-05-22T06:37:50.601Z,101559.09
2023-05-22T06:42:53.842Z,101566.97
2023-05-22T06:48:23.430Z,101573.03
2023-05-22T06:53:54.838Z,101570.75
2023-05-22T06:59:01.218Z,101571.53
2023-05-22T07:04:22.805Z,101580.22
2023-05-22T07:09:35.746Z,101569.13
2023-05-22T07:14:40.166Z,101569.84
2023-05-22T07:19:43.513Z,101570.97
2023-05-22T07:24:48.268Z,101566.69
2023-05-22T07:29:53.533Z,101558.69
2023-05-22T07:34:57.540Z,101568.91
2023-05-22T07:40:02.930Z,101569.41
2023-05-22T07:45:08.132Z,101567.72
2023-05-22T07:50:11.541Z,101574.53
2023-05-22T07:55:19.530Z,101566.78
2023-05-22T08:00:25.396Z,101581.50
2023-05-22T08:05:28.643Z,101591.31
2023-05-22T08:10:46.436Z,101589.47
2023-05-22T08:15:50.601Z,101585.84
2023-05-22T08:21:03.822Z,101567.97
2023-05-22T08:26:09.910Z,101589.47
2023-05-22T08:31:13.142Z,101577.88
2023-05-22T08:36:16.412Z,101579.19
2023-05-22T08:41:21.822Z,101576.53
2023-05-22T08:46:29.411Z,101574.81
2023-05-22T08:51:35.783Z,101579.41
2023-05-22T08:56:52.911Z,101560.69
2023-05-22T09:01:59.741Z,101573.22
2023-05-22T09:07:05.808Z,101571.44
2023-05-22T09:12:11.743Z,101572.38
2023-05-22T09:17:17.186Z,101574.16
2023-05-22T09:22:21.816Z,101554.44
2023-05-22T09:27:28.768Z,101563.22
2023-05-22T09:32:32.183Z,101563.84
2023-05-22T09:37:38.382Z,101564.34
2023-05-22T09:42:45.795Z,101558.97
2023-05-22T09:47:50.629Z,101566.72
2023-05-22T09:52:55.383Z,101555.09
2023-05-22T09:58:04.219Z,101558.63
2023-05-22T10:03:12.193Z,101550.75
2023-05-22T10:08:16.310Z,101551.34
2023-05-22T10:13:21.606Z,101542.44
2023-05-22T10:18:26.005Z,101543.88
2023-05-22T10:23:29.695Z,101534.94
2023-05-22T10:28:41.850Z,101527.16
2023-05-22T10:33:49.853Z,101535.88
2023-05-22T10:39:08.111Z,101523.06
2023-05-22T10:44:12.696Z,101542.53
2023-05-22T10:49:22.509Z,101533.25
2023-05-22T10:54:42.192Z,101535.72
2023-05-22T10:59:48.741Z,101535.41
2023-05-22T11:04:51.854Z,101526.63
2023-05-22T11:10:01.579Z,101529.75
2023-05-22T11:15:07.936Z,101529.44
2023-05-22T11:20:16.122Z,101523.75
2023-05-22T11:25:21.466Z,101501.84
2023-05-22T11:30:28.506Z,101511.31
2023-05-22T11:35:32.233Z,101505.69
2023-05-22T11:40:35.353Z,101502.53
2023-05-22T11:45:40.943Z,101507.50
2023-05-22T11:50:45.040Z,101509.25
2023-05-22T11:55:49.766Z,101507.09
2023-05-22T12:00:58.341Z,101496.38
2023-05-22T12:06:03.860Z,101499.31
2023-05-22T12:11:07.664Z,101501.97
2023-05-22T12:16:22.892Z,101494.16
2023-05-22T12:21:28.171Z,101499.72
2023-05-22T12:26:31.682Z,101489.41
2023-05-22T12:31:39.236Z,101498.00
2023-05-22T12:36:44.155Z,101496.94
2023-05-22T12:41:47.380Z,101508.41
2023-05-22T12:46:53.510Z,101500.50
2023-05-22T12:51:56.661Z,101491.31
2023-05-22T12:56:59.714Z,101504.69
2023-05-22T13:02:05.535Z,101477.16
2023-05-22T13:07:08.813Z,101492.25
2023-05-22T13:12:12.106Z,101511.28
2023-05-22T13:17:16.473Z,101501.13
2023-05-22T13:22:19.690Z,101498.78
2023-05-22T13:27:22.942Z,101501.91
2023-05-22T13:32:27.333Z,101511.19
2023-05-22T13:37:30.724Z,101509.19
2023-05-22T13:42:34.070Z,101510.06
2023-05-22T13:47:38.615Z,101505.50
2023-05-22T13:52:41.733Z,101523.31
2023-05-22T13:57:44.682Z,101516.81
2023-05-22T14:02:50.166Z,101524.19
2023-05-22T14:07:54.196Z,101522.28
2023-05-22T14:12:57.404Z,101526.94
2023-05-22T14:18:02.064Z,101516.63
2023-05-22T14:23:05.446Z,101522.31
2023-05-22T14:28:08.521Z,101521.06
2023-05-22T14:33:13.007Z,101517.72
2023-05-22T14:38:16.148Z,101516.22
2023-05-22T14:43:19.130Z,101529.38
2023-05-22T14:48:26.380Z,101530.66
2023-05-22T14:53:29.853Z,101521.19
2023-05-22T14:58:33.175Z,101520.28
2023-05-22T15:03:37.592Z,101537.72
2023-05-22T15:08:40.624Z,101541.84
2023-05-22T15:13:43.690Z,101536.97
2023-05-22T15:18:48.074Z,101543.22
2023-05-22T15:23:51.339Z,101563.00
2023-05-22T15:28:54.373Z,101547.91
2023-05-22T15:33:58.957Z,101551.28
2023-05-22T15:39:02.890Z,101556.94
2023-05-22T15:44:06.005Z,101561.47
2023-05-22T15:49:10.542Z,101553.16
2023-05-22T15:54:13.647Z,101566.00
2023-05-22T15:59:16.705Z,101565.22
2023-05-22T16:04:21.200Z,101557.16
2023-05-22T16:09:24.348Z,101568.97
2023-05-22T16:14:27.407Z,101573.75
2023-05-22T16:19:33.560Z,101554.25
2023-05-22T16:24:36.926Z,101565.84
2023-05-22T16:29:40.010Z,101557.66
2023-05-22T16:34:44.515Z,101558.56
2023-05-22T16:39:48.004Z,101566.09
2023-05-22T16:44:51.524Z,101573.44
2023-05-22T16:49:56.389Z,101571.66
2023-05-22T16:54:59.461Z,101579.72
2023-05-22T17:00:03.715Z,101598.03
2023-05-22T17:05:09.191Z,101591.88
2023-05-22T17:10:12.956Z,101593.84
2023-05-22T17:15:16.380Z,101599.13
2023-05-22T17:20:23.265Z,101593.03
2023-05-22T17:25:26.652Z,101595.44
2023-05-22T17:30:29.744Z,101599.69
2023-05-22T17:35:34.378Z,101612.41
2023-05-22T17:40:45.990Z,101607.16
2023-05-22T17:45:53.852Z,101618.91
2023-05-22T17:50:59.503Z,101619.28
2023-05-22T17:56:02.625Z,101625.63
2023-05-22T18:01:05.871Z,101641.84
2023-05-22T18:06:10.531Z,101641.88
2023-05-22T18:11:13.694Z,101645.47
2023-05-22T18:16:19.706Z,101649.06
2023-05-22T18:21:25.810Z,101636.56
2023-05-22T18:26:28.935Z,101647.28
2023-05-22T18:31:31.998Z,101647.28
2023-05-22T18:36:41.696Z,101648.13
2023-05-22T18:41:45.151Z,101663.28
2023-05-22T18:46:48.362Z,101652.47
2023-05-22T18:51:52.827Z,101675.56
2023-05-22T18:56:56.481Z,101684.31
2023-05-22T19:01:59.600Z,101680.59
2023-05-22T19:07:04.512Z,101697.44
2023-05-22T19:12:07.985Z,101689.22
2023-05-22T19:17:11.228Z,101704.97
2023-05-22T19:22:18.590Z,101707.13
2023-05-22T19:27:21.742Z,101725.56
2023-05-22T19:32:24.764Z,101719.16
2023-05-22T19:37:29.180Z,101734.03
2023-05-22T19:42:32.319Z,101742.59
2023-05-22T19:47:35.433Z,101743.81
2023-05-22T19:52:43.027Z,101772.97
2023-05-22T19:57:46.549Z,101780.56
2023-05-22T20:02:50.076Z,101770.28
2023-05-22T20:07:54.561Z,101794.72
2023-05-22T20:12:58.139Z,101804.00
2023-05-22T20:18:02.708Z,101809.84
2023-05-22T20:23:07.369Z,101813.19
2023-05-22T20:28:10.605Z,101817.44
2023-05-22T20:33:14.421Z,101826.78
2023-05-22T20:38:19.111Z,101830.03
2023-05-22T20:43:22.161Z,101848.72
2023-05-22T20:48:25.619Z,101861.28
2023-05-22T20:53:32.790Z,101880.81
2023-05-22T20:58:38.576Z,101872.81
2023-05-22T21:03:42.355Z,101900.81
2023-05-22T21:08:46.748Z,101887.69
2023-05-22T21:13:50.203Z,101892.03
2023-05-22T21:18:53.258Z,101892.91
2023-05-22T21:23:57.835Z,101909.41
2023-05-22T21:29:01.118Z,101903.38
2023-05-22T21:34:04.194Z,101905.03
2023-05-22T21:39:08.909Z,101917.16
2023-05-22T21:44:12.014Z,101910.91
2023-05-22T21:49:15.239Z,101910.91
2023-05-22T21:54:19.806Z,101911.56
2023-05-22T21:59:22.914Z,101904.25
2023-05-22T22:04:26.120Z,101911.38
2023-05-22T22:09:30.491Z,101912.06
2023-05-22T22:14:33.490Z,101917.34
2023-05-22T22:19:47.200Z,101917.06
2023-05-22T22:24:51.725Z,101905.03
2023-05-22T22:29:54.922Z,101934.38
2023-05-22T22:34:58.253Z,101928.91
2023-05-22T22:40:02.812Z,101919.00
2023-05-22T22:45:07.183Z,101916.19
2023-05-22T22:50:11.002Z,101929.28
2023-05-22T22:55:15.670Z,101918.44
2023-05-22T23:00:20.283Z,101928.00
2023-05-22T23:05:23.548Z,101939.38
2023-05-22T23:10:28.010Z,101925.63
2023-05-22T23:15:31.126Z,101947.38
2023-05-22T23:20:34.281Z,101960.78
2023-05-22T23:25:38.882Z,101959.97
2023-05-22T23:30:42.215Z,101960.13
2023-05-22T23:35:45.192Z,101958.28
2023-05-22T23:40:49.701Z,101959.16
2023-05-22T23:45:52.769Z,101956.41
2023-05-22T23:50:55.836Z,101969.72
2023-05-22T23:56:00.329Z,101965.41
